Time;durP1;ratioP1;P1;durP2;ratioP2;P2;SDS_P1;SDS_P2;PMS_P1;PMS_P2;Temp;Humidity;BMP_temperature;BMP_pressure;BME280_temperature;BME280_humidity;BME280_pressure;Samples;Min_cycle;Max_cycle;Signal;HPM_P1;HPM_P2
2022/10/17 00:00:50;;;;;;;3.78;2.85;;;;;;;16.49;51.81;101324.03;5025267;28;20049;-72
2022/10/17 00:03:18;;;;;;;3.92;2.90;;;;;;;16.49;51.47;101322.13;5026935;28;20049;-72
2022/10/17 00:05:48;;;;;;;5.97;2.90;;;;;;;16.51;51.67;101319.19;5004138;28;20053;-73
2022/10/17 00:08:18;;;;;;;5.43;2.70;;;;;;;16.51;51.55;101330.22;5029713;28;20056;-73
2022/10/17 00:10:46;;;;;;;3.92;2.80;;;;;;;16.49;52.05;101322.13;5023299;28;20050;-72
2022/10/17 00:13:13;;;;;;;4.07;2.55;;;;;;;16.50;51.82;101331.25;5029385;28;20038;-72
2022/10/17 00:15:44;;;;;;;3.60;2.60;;;;;;;16.51;52.30;101317.28;5020738;28;20045;-72
2022/10/17 00:18:12;;;;;;;4.30;2.80;;;;;;;16.49;51.74;101319.38;5031038;28;20399;-72
2022/10/17 00:20:40;;;;;;;4.25;2.58;;;;;;;16.50;51.96;101312.78;5023802;28;20431;-72
2022/10/17 00:23:08;;;;;;;4.95;2.65;;;;;;;16.51;51.61;101322.81;5028535;28;20025;-72
2022/10/17 00:25:36;;;;;;;4.47;2.90;;;;;;;16.52;51.91;101316.25;5030210;28;20564;-72
2022/10/17 00:28:04;;;;;;;4.13;2.63;;;;;;;16.52;52.27;101319.03;5030418;28;20117;-72
2022/10/17 00:30:33;;;;;;;4.18;2.78;;;;;;;16.52;51.88;101316.25;5026030;28;20038;-72
2022/10/17 00:33:03;;;;;;;5.35;3.00;;;;;;;16.54;51.95;101316.97;5022649;28;20094;-72
2022/10/17 00:35:32;;;;;;;4.13;2.90;;;;;;;16.53;52.03;101319.88;5028861;28;20392;-72
2022/10/17 00:38:00;;;;;;;5.10;3.30;;;;;;;16.53;52.24;101319.88;5033699;28;20033;-72
2022/10/17 00:40:28;;;;;;;3.47;2.55;;;;;;;16.53;52.38;101317.13;5028034;28;20064;-72
2022/10/17 00:42:56;;;;;;;3.85;2.72;;;;;;;16.54;52.42;101322.50;5029917;28;20046;-72
2022/10/17 00:45:28;;;;;;;4.53;2.85;;;;;;;16.55;52.27;101329.75;5027832;28;21731;-72
2022/10/17 00:48:00;;;;;;;5.47;3.08;;;;;;;16.57;52.91;101333.22;5030292;28;20166;-72
2022/10/17 00:50:30;;;;;;;4.70;3.20;;;;;;;16.55;52.53;101324.22;5043919;28;20041;-72
2022/10/17 00:53:01;;;;;;;4.45;2.65;;;;;;;16.59;52.63;101322.00;5040968;28;20073;-72
2022/10/17 00:55:33;;;;;;;4.07;3.00;;;;;;;16.59;52.55;101324.75;5043284;28;20045;-72
2022/10/17 00:58:05;;;;;;;4.47;2.78;;;;;;;16.59;52.62;101317.34;5045430;28;20064;-72
2022/10/17 01:00:35;;;;;;;3.90;2.65;;;;;;;16.59;52.51;101311.81;5026945;28;20369;-73
2022/10/17 01:03:04;;;;;;;4.82;2.85;;;;;;;16.60;52.73;101319.06;5027113;28;20052;-72
2022/10/17 01:05:34;;;;;;;4.05;3.10;;;;;;;16.64;52.81;101316.88;5027841;28;20051;-72
2022/10/17 01:08:02;;;;;;;4.78;3.10;;;;;;;16.62;52.54;101321.69;5030277;28;20530;-73
2022/10/17 01:10:34;;;;;;;4.38;2.95;;;;;;;16.64;52.35;101320.50;5021508;28;20064;-72
2022/10/17 01:13:13;;;;;;;4.43;2.72;;;;;;;16.67;52.83;101304.59;5027530;28;20396;-72
2022/10/17 01:15:52;;;;;;;4.55;2.88;;;;;;;16.68;52.91;101304.44;4986857;28;20037;-72
2022/10/17 01:18:32;;;;;;;4.57;3.03;;;;;;;16.67;52.51;101307.34;5026149;28;20153;-72
2022/10/17 01:21:43;;;;;;;5.40;2.92;;;;;;;16.65;53.20;101313.06;5003323;28;20051;-72
2022/10/17 01:24:46;;;;;;;4.78;2.70;;;;;;;16.62;52.95;101314.25;5025527;28;20671;-71
2022/10/17 01:27:48;;;;;;;4.47;2.90;;;;;;;16.66;53.50;101319.47;5017987;28;20556;-72
2022/10/17 01:30:34;;;;;;;;;;;;;;;16.36;53.60;101318.91;5023558;28;20482;-72
2022/10/17 01:33:12;;;;;;;4.60;2.80;;;;;;;16.66;53.13;101317.53;5025959;28;19921;-72
2022/10/17 01:35:46;;;;;;;4.25;2.92;;;;;;;16.68;52.67;101311.84;5040346;28;20103;-72
2022/10/17 01:38:19;;;;;;;4.40;2.85;;;;;;;16.69;52.39;101308.94;5030256;28;20683;-72
2022/10/17 01:40:56;;;;;;;5.40;3.15;;;;;;;16.70;52.73;101313.44;5033461;28;20048;-72
2022/10/17 01:43:29;;;;;;;3.95;2.90;;;;;;;16.71;52.51;101325.38;5042673;28;20165;-72
2022/10/17 01:46:01;;;;;;;4.55;2.83;;;;;;;16.71;52.44;101311.53;5023736;28;20588;-72
2022/10/17 01:48:35;;;;;;;4.15;2.75;;;;;;;16.71;52.81;101297.72;5026215;28;20049;-72
2022/10/17 01:51:09;;;;;;;4.93;2.63;;;;;;;16.72;52.52;101305.84;5023479;28;20042;-72
2022/10/17 01:53:42;;;;;;;5.47;3.17;;;;;;;16.74;52.96;101294.66;5020211;28;20034;-72
2022/10/17 01:56:13;;;;;;;4.43;2.90;;;;;;;16.75;52.41;101301.88;5044147;28;20049;-72
2022/10/17 01:58:46;;;;;;;4.45;2.88;;;;;;;16.77;52.44;101297.06;5024100;28;20048;-72
2022/10/17 02:01:16;;;;;;;4.10;3.00;;;;;;;16.75;52.79;101305.50;5025351;28;20041;-72
2022/10/17 02:03:50;;;;;;;4.43;2.90;;;;;;;16.77;53.35;101294.28;5022373;28;20045;-72
2022/10/17 02:06:18;;;;;;;5.40;3.00;;;;;;;16.75;52.73;101288.06;5024297;28;20075;-72
2022/10/17 02:08:48;;;;;;;6.25;2.75;;;;;;;16.77;52.71;101275.81;5028577;28;20037;-72
2022/10/17 02:11:19;;;;;;;4.05;2.63;;;;;;;16.78;52.38;101274.78;5021044;28;20048;-72
2022/10/17 02:14:14;;;;;;;4.43;2.88;;;;;;;16.75;52.66;101277.88;5026568;28;20053;-72
2022/10/17 02:16:50;;;;;;;4.57;2.67;;;;;;;16.78;52.27;101277.56;5019949;28;20041;-72
2022/10/17 02:19:43;;;;;;;3.95;2.95;;;;;;;16.79;52.70;101273.75;5043031;28;20052;-72
2022/10/17 02:22:21;;;;;;;4.03;2.40;;;;;;;16.81;52.28;101273.59;4971464;28;20053;-72
2022/10/17 02:24:54;;;;;;;5.35;3.00;;;;;;;16.80;52.14;101285.69;5022102;28;20476;-73
2022/10/17 02:27:35;;;;;;;5.28;2.92;;;;;;;16.81;52.23;101287.44;5043461;28;20702;-72
2022/10/17 02:30:11;;;;;;;4.22;2.72;;;;;;;16.81;52.22;101288.28;5042989;28;20140;-73
2022/10/17 02:32:47;;;;;;;3.97;2.78;;;;;;;16.80;52.36;101292.09;5026185;28;20091;-73
2022/10/17 02:35:25;;;;;;;3.58;2.75;;;;;;;16.81;52.15;101287.44;4999371;28;20496;-72
2022/10/17 02:37:53;;;;;;;;;;;;;;;16.52;53.36;101293.28;5012574;28;20038;-72
2022/10/17 02:40:24;;;;;;;4.05;2.75;;;;;;;16.76;51.89;101287.03;5019506;28;20142;-73
2022/10/17 02:42:55;;;;;;;4.75;2.88;;;;;;;16.81;52.12;101287.44;5026305;28;20623;-73
2022/10/17 02:45:26;;;;;;;3.92;3.00;;;;;;;16.80;52.18;101282.94;5025928;28;20041;-72
2022/10/17 02:47:58;;;;;;;3.88;2.70;;;;;;;16.81;51.90;101284.66;5021470;28;20128;-72
2022/10/17 02:50:39;;;;;;;4.57;2.60;;;;;;;16.80;52.51;101282.94;5025119;28;20077;-72
2022/10/17 02:53:12;;;;;;;4.95;2.80;;;;;;;16.78;52.24;101290.50;5027544;28;20038;-72
2022/10/17 02:55:48;;;;;;;3.92;2.80;;;;;;;16.79;52.33;101298.63;5023909;28;20053;-72
2022/10/17 02:58:20;;;;;;;4.85;2.83;;;;;;;16.80;52.41;101297.63;5043376;28;20071;-72
2022/10/17 03:00:49;;;;;;;;;;;;;;;16.50;53.19;101287.03;5007202;28;20038;-72
2022/10/17 03:03:23;;;;;;;4.30;2.50;;;;;;;16.77;52.33;101291.53;5010229;28;19932;-72
2022/10/17 03:05:53;;;;;;;5.22;2.80;;;;;;;16.79;52.33;101286.72;5041993;28;20388;-72
2022/10/17 03:08:28;;;;;;;4.20;2.70;;;;;;;16.76;51.96;101287.91;5027763;28;20104;-72
2022/10/17 03:10:56;;;;;;;4.28;2.67;;;;;;;16.77;51.81;101306.22;5025702;28;20053;-72
2022/10/17 03:13:26;;;;;;;4.22;2.92;;;;;;;16.78;51.79;101301.56;5024299;28;20128;-72
2022/10/17 03:15:56;;;;;;;4.65;3.13;;;;;;;16.79;52.26;101300.53;5019211;28;20046;-72
2022/10/17 03:18:24;;;;;;;3.97;2.90;;;;;;;16.78;52.12;101294.13;5019966;28;20038;-72
2022/10/17 03:20:58;;;;;;;4.75;2.97;;;;;;;16.79;52.30;101289.47;5025159;28;20087;-72
2022/10/17 03:23:26;;;;;;;3.63;2.65;;;;;;;16.77;51.80;101291.53;5040020;28;20049;-72
2022/10/17 03:25:55;;;;;;;5.30;3.20;;;;;;;16.76;52.03;101287.91;4991391;28;20043;-72
2022/10/17 03:28:23;;;;;;;5.55;3.03;;;;;;;16.77;52.11;101295.16;5020888;28;20050;-72
2022/10/17 03:30:51;;;;;;;3.80;2.78;;;;;;;16.78;51.94;101296.03;5002838;28;20555;-72
2022/10/17 03:33:19;;;;;;;4.80;2.95;;;;;;;16.76;52.32;101298.09;5017227;28;20361;-73
2022/10/17 03:35:48;;;;;;;4.28;2.90;;;;;;;16.75;52.00;101297.22;5029360;28;20060;-73
2022/10/17 03:38:18;;;;;;;5.50;2.92;;;;;;;16.77;52.05;101303.47;5029973;28;20099;-72
2022/10/17 03:40:55;;;;;;;4.75;3.40;;;;;;;16.79;52.55;101303.31;5028636;28;20124;-72
2022/10/17 03:43:23;;;;;;;4.47;2.97;;;;;;;16.76;51.78;101304.50;5028560;28;20041;-72
2022/10/17 03:45:51;;;;;;;3.95;3.00;;;;;;;16.76;52.32;101298.97;5002079;28;20081;-72
2022/10/17 03:48:19;;;;;;;4.20;2.88;;;;;;;16.76;52.34;101304.50;5020368;28;20056;-72
2022/10/17 03:50:48;;;;;;;3.30;2.47;;;;;;;16.76;52.02;101307.25;5029598;28;20038;-72
2022/10/17 03:53:16;;;;;;;4.47;2.83;;;;;;;16.77;52.32;101313.66;5029527;28;20082;-73
2022/10/17 03:55:45;;;;;;;5.30;2.80;;;;;;;16.79;52.18;101312.47;5028523;28;20095;-72
2022/10/17 03:58:13;;;;;;;5.30;2.95;;;;;;;16.77;52.20;101310.88;5031122;28;20558;-73
2022/10/17 04:00:41;;;;;;;4.60;2.80;;;;;;;16.77;52.15;101311.75;5027853;28;20488;-72
2022/10/17 04:03:09;;;;;;;4.15;2.90;;;;;;;16.78;52.20;101323.69;5027515;28;20041;-72
2022/10/17 04:05:44;;;;;;;4.85;3.20;;;;;;;16.78;52.25;101313.50;5024689;28;20045;-73
2022/10/17 04:08:12;;;;;;;4.00;3.00;;;;;;;16.80;51.72;101316.09;5023885;28;20152;-72
2022/10/17 04:11:07;;;;;;;4.45;2.85;;;;;;;16.78;51.93;101316.25;5019478;28;20044;-73
2022/10/17 04:13:36;;;;;;;4.90;2.90;;;;;;;16.80;52.18;101318.84;5043046;28;20076;-72
2022/10/17 04:16:06;;;;;;;4.57;3.33;;;;;;;16.82;52.00;101317.66;5017088;28;20041;-72
2022/10/17 04:18:40;;;;;;;5.53;2.90;;;;;;;16.82;51.85;101320.44;5029663;28;20041;-71
2022/10/17 04:21:09;;;;;;;4.43;2.88;;;;;;;16.82;51.86;101328.72;5042012;28;20197;-71
2022/10/17 04:23:37;;;;;;;5.15;3.17;;;;;;;16.82;51.86;101325.97;5028811;28;20076;-71
2022/10/17 04:26:16;;;;;;;3.58;2.60;;;;;;;16.84;52.14;101326.66;5044748;28;20045;-71
2022/10/17 04:28:45;;;;;;;5.10;3.10;;;;;;;16.83;51.86;101333.19;5027041;28;20052;-71
2022/10/17 04:31:14;;;;;;;4.00;2.95;;;;;;;16.85;51.58;101330.28;5025074;28;20044;-71
2022/10/17 04:34:03;;;;;;;6.35;3.28;;;;;;;16.83;52.15;101326.81;5023417;28;20115;-71
2022/10/17 04:36:31;;;;;;;5.30;3.08;;;;;;;16.83;52.09;101332.34;5027225;28;20049;-71
2022/10/17 04:39:00;;;;;;;5.38;2.70;;;;;;;16.85;51.51;101328.38;5028868;28;20037;-72
2022/10/17 04:41:32;;;;;;;6.43;2.88;;;;;;;16.87;52.06;101325.47;5024193;28;20128;-72
2022/10/17 04:44:01;;;;;;;4.10;2.90;;;;;;;16.85;52.14;101316.47;5043097;28;20136;-71
2022/10/17 04:46:34;;;;;;;4.32;3.00;;;;;;;16.87;51.57;101329.09;5021653;28;20052;-71
2022/10/17 04:49:02;;;;;;;4.93;2.90;;;;;;;16.86;51.56;101332.88;5040885;28;20091;-71
2022/10/17 04:51:30;;;;;;;5.10;3.15;;;;;;;16.86;51.99;101335.66;5025892;28;20412;-72
2022/10/17 04:54:19;;;;;;;4.40;3.05;;;;;;;16.85;52.07;101331.16;5029558;28;20052;-71
2022/10/17 04:56:53;;;;;;;6.40;2.85;;;;;;;16.89;51.48;101338.09;5029357;28;20124;-71
2022/10/17 04:59:22;;;;;;;4.30;3.10;;;;;;;16.89;51.61;101340.88;5045081;28;20053;-71
2022/10/17 05:01:58;;;;;;;4.05;2.80;;;;;;;16.89;51.89;101337.22;5025889;28;20445;-71
2022/10/17 05:04:26;;;;;;;5.28;2.65;;;;;;;16.89;51.79;101335.34;5027498;28;20190;-73
2022/10/17 05:06:55;;;;;;;5.75;2.80;;;;;;;16.90;51.54;101337.06;4987228;28;20060;-71
2022/10/17 05:09:32;;;;;;;4.93;2.90;;;;;;;16.90;51.66;101342.59;5030781;28;20063;-71
2022/10/17 05:12:02;;;;;;;4.32;2.88;;;;;;;16.92;51.53;101343.28;5001598;28;20061;-73
2022/10/17 05:14:33;;;;;;;4.10;2.90;;;;;;;16.91;51.56;101337.91;5032761;28;20381;-71
2022/10/17 05:17:02;;;;;;;4.72;2.95;;;;;;;16.91;51.33;101341.53;5022942;28;20049;-71
2022/10/17 05:19:30;;;;;;;5.28;2.95;;;;;;;16.91;51.42;101347.06;5026474;28;20042;-71
2022/10/17 05:21:59;;;;;;;3.92;2.75;;;;;;;16.91;51.88;101337.91;5024646;28;20044;-71
2022/10/17 05:24:27;;;;;;;5.53;3.25;;;;;;;16.92;51.79;101347.94;5028817;28;20053;-70
2022/10/17 05:26:55;;;;;;;5.05;3.10;;;;;;;16.92;51.15;101350.69;5028606;28;20050;-71
2022/10/17 05:29:25;;;;;;;4.88;2.92;;;;;;;16.94;51.33;101345.88;5038444;28;20045;-71
2022/10/17 05:32:02;;;;;;;3.90;2.90;;;;;;;16.92;51.71;101342.41;5027816;28;20283;-71
2022/10/17 05:34:30;;;;;;;5.18;2.70;;;;;;;16.93;51.60;101349.69;5026320;28;20046;-70
2022/10/17 05:36:59;;;;;;;4.03;2.78;;;;;;;16.93;51.47;101344.16;5028396;28;20041;-71
2022/10/17 05:39:27;;;;;;;4.75;3.00;;;;;;;16.93;51.38;101342.25;5029305;28;20049;-71
2022/10/17 05:41:56;;;;;;;4.13;2.72;;;;;;;16.94;51.40;101354.19;5022777;28;20583;-71
2022/10/17 05:44:26;;;;;;;4.32;2.50;;;;;;;16.97;51.37;101364.97;5026586;28;20053;-71
2022/10/17 05:46:57;;;;;;;4.57;2.83;;;;;;;16.95;51.50;101365.09;4988615;28;20152;-71
2022/10/17 05:49:27;;;;;;;4.43;3.00;;;;;;;16.95;51.29;101369.75;5026266;28;20045;-71
2022/10/17 05:52:15;;;;;;;5.10;3.13;;;;;;;16.95;51.43;101362.31;5002922;28;20198;-72
2022/10/17 05:54:56;;;;;;;4.68;2.90;;;;;;;16.95;51.24;101366.97;5015880;28;20048;-70
2022/10/17 05:57:25;;;;;;;4.03;2.92;;;;;;;16.98;51.05;101344.56;5027816;28;20484;-70
2022/10/17 05:59:54;;;;;;;4.25;2.65;;;;;;;16.99;51.55;101355.44;5022519;28;20041;-70
2022/10/17 06:02:22;;;;;;;4.68;2.70;;;;;;;16.98;51.63;101373.09;5022363;28;20103;-71
2022/10/17 06:04:50;;;;;;;4.65;2.65;;;;;;;16.98;51.08;101384.16;5016685;28;20063;-71
2022/10/17 06:07:21;;;;;;;4.85;3.10;;;;;;;16.99;51.35;101388.63;5022941;28;20046;-71
2022/10/17 06:09:49;;;;;;;4.75;2.97;;;;;;;17.01;51.18;101396.75;5018715;28;20049;-71
2022/10/17 06:12:17;;;;;;;4.35;2.72;;;;;;;17.02;50.95;101398.50;5019786;28;20041;-71
2022/10/17 06:14:46;;;;;;;4.43;2.90;;;;;;;17.04;50.95;101398.34;5022856;28;20474;-71
2022/10/17 06:17:17;;;;;;;3.80;2.72;;;;;;;17.07;51.34;101409.97;5026914;28;20111;-71
2022/10/17 06:19:45;;;;;;;4.70;2.75;;;;;;;17.07;51.49;101420.16;5039256;28;20137;-70
2022/10/17 06:22:15;;;;;;;4.80;2.75;;;;;;;17.07;50.81;101418.25;5023778;28;20052;-70
2022/10/17 06:24:43;;;;;;;5.88;3.25;;;;;;;17.08;50.93;101425.50;5027693;28;20152;-71
2022/10/17 06:27:13;;;;;;;5.28;3.05;;;;;;;17.11;51.13;101427.06;5026828;28;20039;-71
2022/10/17 06:29:41;;;;;;;4.82;2.95;;;;;;;17.12;51.37;101426.06;5028133;28;20045;-71
2022/10/17 06:32:11;;;;;;;6.00;3.20;;;;;;;17.14;51.46;101429.53;5025193;28;20048;-71
2022/10/17 06:34:47;;;;;;;4.10;2.80;;;;;;;17.17;51.29;101426.41;5020309;28;20045;-71
2022/10/17 06:37:15;;;;;;;4.65;3.00;;;;;;;17.19;51.64;101421.59;5027806;28;20046;-71
2022/10/17 06:39:45;;;;;;;4.95;3.33;;;;;;;17.22;51.09;101418.50;5020677;28;20033;-71
2022/10/17 06:42:17;;;;;;;5.45;3.13;;;;;;;17.25;51.34;101429.22;5021919;28;20124;-71
2022/10/17 06:45:04;;;;;;;4.63;3.03;;;;;;;17.28;50.95;101424.25;5013194;28;20188;-71
2022/10/17 06:47:53;;;;;;;4.00;2.92;;;;;;;17.31;51.05;101417.53;5011694;28;20095;-70
2022/10/17 06:50:34;;;;;;;5.20;3.10;;;;;;;17.36;50.62;101417.88;5018082;28;20050;-70
2022/10/17 06:53:34;;;;;;;4.90;3.30;;;;;;;17.36;50.74;101423.41;5011116;28;20053;-71
2022/10/17 06:56:20;;;;;;;4.70;2.58;;;;;;;17.36;51.16;101432.59;5018397;28;20060;-70
2022/10/17 06:59:09;;;;;;;4.28;2.80;;;;;;;17.42;51.03;101435.72;5032241;28;20050;-71
2022/10/17 07:01:39;;;;;;;5.05;2.80;;;;;;;17.45;50.55;101440.94;5012353;28;20136;-71
2022/10/17 07:04:13;;;;;;;4.38;2.90;;;;;;;17.49;50.99;101445.97;5030827;28;20635;-71
2022/10/17 07:06:43;;;;;;;4.35;3.10;;;;;;;17.55;50.66;101447.22;5011588;28;20041;-71
2022/10/17 07:09:16;;;;;;;4.90;2.92;;;;;;;17.58;50.72;101446.88;5011412;28;20073;-70
2022/10/17 07:11:44;;;;;;;5.70;3.00;;;;;;;17.65;51.18;101450.69;5029493;28;20050;-70
2022/10/17 07:14:16;;;;;;;4.75;2.85;;;;;;;17.70;51.02;101449.19;5014459;28;20057;-70
2022/10/17 07:16:46;;;;;;;4.40;2.78;;;;;;;17.83;51.31;101458.94;5013326;28;20481;-70
2022/10/17 07:19:22;;;;;;;4.75;2.85;;;;;;;17.92;51.30;101463.47;5026261;28;20054;-70
2022/10/17 07:21:53;;;;;;;4.15;2.95;;;;;;;18.04;50.55;101451.06;5009628;28;20064;-70
2022/10/17 07:24:21;;;;;;;5.15;2.75;;;;;;;18.09;50.44;101457.81;5028426;28;20050;-70
2022/10/17 07:26:58;;;;;;;4.75;2.95;;;;;;;18.16;50.03;101452.47;4990362;28;20055;-70
2022/10/17 07:29:26;;;;;;;4.40;2.90;;;;;;;18.20;49.69;101455.78;5028611;28;20512;-70
2022/10/17 07:32:19;;;;;;;;;;;;;;;17.94;50.53;101450.34;5029302;23;20050;-70
2022/10/17 07:34:46;;;;;;;4.20;2.58;;;;;;;18.21;49.28;101458.38;5031727;28;20350;-71
2022/10/17 07:37:16;;;;;;;4.57;2.70;;;;;;;18.27;49.01;101467.91;5028997;28;20143;-70
2022/10/17 07:39:50;;;;;;;5.88;2.80;;;;;;;18.26;49.33;101471.72;5024162;28;20049;-70
2022/10/17 07:42:19;;;;;;;4.50;2.90;;;;;;;18.25;48.88;101457.00;5001548;28;20563;-70
2022/10/17 07:44:50;;;;;;;4.88;3.00;;;;;;;18.24;49.01;101459.91;5030414;28;20042;-70
2022/10/17 07:47:19;;;;;;;4.18;2.50;;;;;;;18.23;48.76;101463.72;5028672;28;20624;-70
2022/10/17 07:49:48;;;;;;;5.50;3.00;;;;;;;18.22;48.78;101460.13;5029521;28;20060;-70
2022/10/17 07:52:17;;;;;;;5.20;2.90;;;;;;;18.26;49.12;101457.84;5030627;28;20507;-69
2022/10/17 07:54:45;;;;;;;4.30;2.67;;;;;;;18.24;49.14;101449.72;5030837;28;20045;-69
2022/10/17 07:57:13;;;;;;;4.65;2.78;;;;;;;18.25;48.79;101458.88;5030326;28;20133;-70
2022/10/17 07:59:41;;;;;;;5.35;2.95;;;;;;;18.27;48.90;101457.69;5031194;28;20120;-70
2022/10/17 08:02:22;;;;;;;3.88;2.47;;;;;;;18.31;48.66;101464.59;5030016;28;20042;-70
2022/10/17 08:04:51;;;;;;;5.07;2.78;;;;;;;18.31;49.23;101469.28;5029926;28;20084;-69
2022/10/17 08:07:22;;;;;;;3.42;2.40;;;;;;;18.38;48.76;101468.47;5030292;28;20501;-69
2022/10/17 08:09:56;;;;;;;5.00;2.92;;;;;;;18.40;48.93;101476.56;5032057;28;20321;-70
2022/10/17 08:12:24;;;;;;;5.25;2.63;;;;;;;18.44;48.66;101486.31;5003803;28;20057;-70
2022/10/17 08:14:52;;;;;;;3.70;2.70;;;;;;;18.49;48.91;101492.22;5030799;28;20152;-69
2022/10/17 08:17:20;;;;;;;5.70;2.92;;;;;;;18.54;48.83;101494.50;5011893;28;20045;-69
2022/10/17 08:19:48;;;;;;;5.50;2.85;;;;;;;18.58;48.99;101499.50;5013539;28;20496;-70
2022/10/17 08:22:16;;;;;;;4.20;2.45;;;;;;;18.64;48.91;101514.59;5030075;28;20037;-69
2022/10/17 08:24:46;;;;;;;3.63;2.65;;;;;;;18.70;48.69;101520.34;5029793;28;20420;-70
2022/10/17 08:27:13;;;;;;;4.07;2.78;;;;;;;18.75;48.43;101530.91;5029801;28;20053;-69
2022/10/17 08:29:41;;;;;;;5.95;2.65;;;;;;;18.80;48.47;101522.94;5031367;28;20522;-69
2022/10/17 08:32:09;;;;;;;3.67;2.72;;;;;;;18.86;48.79;101511.16;5027988;28;20138;-69
2022/10/17 08:34:37;;;;;;;5.10;2.78;;;;;;;18.93;48.61;101508.56;5029604;28;20046;-69
2022/10/17 08:37:05;;;;;;;4.10;2.83;;;;;;;18.99;48.27;101517.03;5029668;28;20514;-69
2022/10/17 08:39:33;;;;;;;4.28;2.50;;;;;;;19.05;48.53;101524.66;5030503;28;20437;-69
2022/10/17 08:42:24;;;;;;;4.85;2.85;;;;;;;19.16;47.68;101531.78;5029824;28;20052;-69
2022/10/17 08:45:05;;;;;;;4.95;2.72;;;;;;;19.22;47.27;101531.97;5029542;28;20442;-69
2022/10/17 08:47:38;;;;;;;6.28;2.60;;;;;;;19.30;48.05;101536.63;5030107;28;20366;-69
2022/10/17 08:50:12;;;;;;;3.70;2.67;;;;;;;19.39;47.81;101549.47;5030262;28;20467;-69
2022/10/17 08:52:44;;;;;;;4.28;2.70;;;;;;;19.44;47.71;101549.81;5030010;28;20053;-69
2022/10/17 08:55:16;;;;;;;4.07;2.45;;;;;;;19.50;47.26;101539.91;5030261;28;20056;-69
2022/10/17 08:57:50;;;;;;;4.03;2.45;;;;;;;19.56;47.39;101534.50;5029028;28;20492;-69
2022/10/17 09:00:20;;;;;;;4.28;2.50;;;;;;;19.61;47.21;101545.09;5029533;28;20057;-69
2022/10/17 09:03:02;;;;;;;4.95;2.40;;;;;;;19.67;46.67;101547.16;5030150;28;20084;-69
2022/10/17 09:05:47;;;;;;;4.50;2.60;;;;;;;19.70;46.39;101538.50;5029861;28;20049;-69
2022/10/17 09:08:27;;;;;;;4.03;2.58;;;;;;;19.75;46.23;101551.84;5029867;28;20037;-69
2022/10/17 09:11:00;;;;;;;4.43;2.72;;;;;;;19.78;46.58;101548.72;5029350;28;20045;-69
2022/10/17 09:13:39;;;;;;;;;;;;;;;19.49;47.59;101544.59;5029387;28;20049;-69
2022/10/17 09:16:23;;;;;;;4.00;2.42;;;;;;;19.80;46.00;101553.03;5028789;28;19927;-69
2022/10/17 09:19:03;;;;;;;4.10;2.40;;;;;;;19.85;46.13;101570.03;5028508;28;20056;-69
2022/10/17 09:21:40;;;;;;;3.90;2.55;;;;;;;19.87;45.94;101559.59;5029035;28;20125;-69
2022/10/17 09:24:15;;;;;;;4.30;2.40;;;;;;;19.89;45.76;101564.97;5030169;28;20045;-70
2022/10/17 09:26:46;;;;;;;4.97;2.63;;;;;;;19.90;45.88;101575.03;5028413;28;20466;-69
2022/10/17 09:29:22;;;;;;;5.38;2.70;;;;;;;19.92;45.83;101570.22;5029592;28;20041;-69
2022/10/17 09:31:59;;;;;;;5.18;2.67;;;;;;;19.91;45.60;101574.91;5028610;28;20055;-69
2022/10/17 09:34:29;;;;;;;3.35;2.38;;;;;;;19.91;45.93;101583.25;5029190;28;20056;-69
2022/10/17 09:36:59;;;;;;;3.95;2.47;;;;;;;19.93;46.02;101574.72;5043064;23;20713;-71
2022/10/17 09:39:30;;;;;;;5.25;2.53;;;;;;;19.90;45.86;101573.13;5022917;28;20041;-71
2022/10/17 09:42:00;;;;;;;3.88;2.40;;;;;;;19.93;45.70;101577.50;5021052;28;20418;-72
2022/10/17 09:44:33;;;;;;;5.07;2.50;;;;;;;19.93;45.59;101566.41;5014818;28;20561;-71
2022/10/17 09:47:19;;;;;;;4.55;2.50;;;;;;;19.91;45.33;101576.81;5026391;28;20042;-72
2022/10/17 09:49:48;;;;;;;3.65;2.50;;;;;;;19.89;45.68;101589.97;5018154;28;20042;-72
2022/10/17 09:52:18;;;;;;;4.43;2.60;;;;;;;19.89;45.70;101582.50;5010822;28;20387;-72
2022/10/17 09:54:49;;;;;;;3.97;2.40;;;;;;;19.88;45.79;101582.69;5017117;28;20136;-72
2022/10/17 09:57:18;;;;;;;3.35;2.40;;;;;;;19.87;45.38;101597.66;5025316;28;20513;-71
2022/10/17 09:59:56;;;;;;;5.07;2.45;;;;;;;19.86;45.27;101595.91;5010784;28;20053;-72
2022/10/17 10:02:26;;;;;;;5.60;2.70;;;;;;;19.83;45.27;101604.59;5010570;28;20049;-71
2022/10/17 10:04:58;;;;;;;3.42;2.50;;;;;;;19.84;45.58;101598.84;5027502;28;20053;-71
2022/10/17 10:07:37;;;;;;;4.50;2.78;;;;;;;19.81;45.70;101604.75;5016697;28;20077;-71
2022/10/17 10:10:07;;;;;;;5.43;2.72;;;;;;;19.80;45.51;101596.59;5023581;28;20076;-72
2022/10/17 10:12:36;;;;;;;4.05;2.38;;;;;;;19.77;45.50;101620.06;5009658;28;20054;-71
2022/10/17 10:15:31;;;;;;;4.53;2.50;;;;;;;19.73;45.42;101615.00;5014949;28;20044;-71
2022/10/17 10:17:59;;;;;;;4.93;2.63;;;;;;;19.72;45.65;101604.94;5014903;28;20318;-71
2022/10/17 10:20:31;;;;;;;4.88;2.50;;;;;;;19.75;45.33;101610.16;5027328;28;20114;-71
2022/10/17 10:23:09;;;;;;;5.43;2.60;;;;;;;19.73;44.95;101615.00;5015101;28;20045;-70
2022/10/17 10:25:37;;;;;;;3.88;2.47;;;;;;;19.69;45.72;101608.97;5009540;28;20528;-71
2022/10/17 10:28:10;;;;;;;3.83;2.42;;;;;;;19.71;45.34;101611.56;5008696;28;20046;-72
2022/10/17 10:30:40;;;;;;;4.00;2.60;;;;;;;19.69;45.51;101616.44;5007658;28;20046;-71
2022/10/17 10:33:11;;;;;;;4.53;2.78;;;;;;;19.69;45.71;101616.44;5009844;28;20050;-71
2022/10/17 10:35:39;;;;;;;4.60;2.95;;;;;;;19.63;45.68;101620.75;5020892;28;20414;-71
2022/10/17 10:38:11;;;;;;;5.18;2.63;;;;;;;19.65;45.90;101625.09;5027590;28;20045;-72
2022/10/17 10:40:46;;;;;;;4.33;2.43;;;;;;;19.63;45.59;101638.28;5023425;28;20459;-72
2022/10/17 10:43:23;;;;;;;4.72;2.80;;;;;;;19.65;45.79;101652.00;5014345;28;20316;-72
2022/10/17 10:45:53;;;;;;;4.60;2.60;;;;;;;19.64;45.65;101651.13;5006640;28;20056;-72
2022/10/17 10:48:23;;;;;;;4.93;2.60;;;;;;;19.64;46.01;101665.00;5019782;28;20052;-71
2022/10/17 10:50:56;;;;;;;4.65;2.85;;;;;;;19.65;45.75;101671.44;5024145;28;20053;-71
2022/10/17 10:53:32;;;;;;;4.55;2.50;;;;;;;19.66;45.59;101670.41;5023313;28;20124;-72
2022/10/17 10:56:08;;;;;;;4.28;2.58;;;;;;;19.66;45.73;101678.72;5020385;28;20446;-71
2022/10/17 10:58:51;;;;;;;5.53;2.85;;;;;;;19.66;45.74;101673.19;5019124;28;20565;-72
2022/10/17 11:01:29;;;;;;;3.63;2.58;;;;;;;19.65;45.79;101674.22;5018510;28;20048;-71
2022/10/17 11:04:21;;;;;;;4.45;2.47;;;;;;;19.64;45.56;101672.47;5019263;28;20045;-71
2022/10/17 11:06:53;;;;;;;4.38;2.63;;;;;;;19.64;46.22;101666.91;5018136;28;20048;-71
2022/10/17 11:09:34;;;;;;;7.07;2.80;;;;;;;19.65;45.67;101663.97;5015560;28;20034;-71
2022/10/17 11:12:10;;;;;;;6.15;2.47;;;;;;;19.66;46.11;101642.63;5015113;28;20041;-71
2022/10/17 11:14:44;;;;;;;4.00;2.60;;;;;;;19.68;46.10;101634.13;5017689;28;20037;-71
2022/10/17 11:17:24;;;;;;;5.68;3.10;;;;;;;19.65;45.85;101614.00;5015592;28;20053;-71
2022/10/17 11:20:01;;;;;;;4.80;2.78;;;;;;;19.65;46.07;101633.44;5017791;28;20025;-71
2022/10/17 11:22:33;;;;;;;4.35;2.80;;;;;;;19.64;45.98;101636.38;5018655;28;20041;-71
2022/10/17 11:25:06;;;;;;;5.05;2.80;;;;;;;19.64;46.41;101647.47;5024323;28;20120;-71
2022/10/17 11:27:34;;;;;;;4.55;2.75;;;;;;;19.58;46.60;101643.50;5021179;28;20092;-71
2022/10/17 11:30:03;;;;;;;4.18;2.83;;;;;;;19.62;46.36;101655.16;4996999;28;20460;-71
2022/10/17 11:32:37;;;;;;;5.78;2.40;;;;;;;19.64;46.69;101672.47;5008995;28;20042;-71
2022/10/17 11:35:14;;;;;;;4.20;2.78;;;;;;;19.64;46.52;101678.03;5016069;28;20421;-71
2022/10/17 11:37:49;;;;;;;4.05;2.47;;;;;;;19.64;46.50;101678.91;5020783;28;20049;-71
2022/10/17 11:40:21;;;;;;;5.38;2.55;;;;;;;19.64;46.77;101673.34;5017449;28;20050;-71
2022/10/17 11:42:57;;;;;;;4.88;2.80;;;;;;;19.65;46.71;101672.31;5023535;28;20042;-71
2022/10/17 11:45:28;;;;;;;5.45;2.50;;;;;;;19.65;46.81;101671.44;5018365;28;20054;-71
2022/10/17 11:48:02;;;;;;;5.25;2.90;;;;;;;19.68;46.68;101675.78;5017227;28;20049;-71
2022/10/17 11:50:34;;;;;;;5.60;2.80;;;;;;;19.65;46.82;101671.44;5016994;28;20065;-71
2022/10/17 11:53:24;;;;;;;4.13;2.75;;;;;;;19.67;46.87;101683.25;5013631;28;20034;-71